Time;durP1;ratioP1;P1;durP2;ratioP2;P2;SDS_P1;SDS_P2;PMS_P1;PMS_P2;Temp;Humidity;BMP_temperature;BMP_pressure;BME280_temperature;BME280_humidity;BME280_pressure;Samples;Min_cycle;Max_cycle;Signal;HPM_P1;HPM_P2
2021/11/01 00:01:50;;;;;;;1.67;1.15;;;4.40;99.90;;;;;;5156587;27;20034;-64
2021/11/01 00:04:16;;;;;;;1.85;1.10;;;4.40;99.90;;;;;;5156567;27;20071;-65
2021/11/01 00:06:43;;;;;;;2.28;1.38;;;4.40;99.90;;;;;;5156331;27;20026;-64
2021/11/01 00:09:09;;;;;;;2.00;1.45;;;4.40;99.90;;;;;;5157190;27;20078;-64
2021/11/01 00:11:35;;;;;;;1.13;1.00;;;4.40;99.90;;;;;;5156349;27;20525;-65
2021/11/01 00:14:01;;;;;;;2.47;1.55;;;4.40;99.90;;;;;;5156499;27;20054;-64
2021/11/01 00:16:29;;;;;;;1.55;1.10;;;4.40;99.90;;;;;;5156513;27;20018;-64
2021/11/01 00:18:55;;;;;;;2.90;1.38;;;4.30;99.90;;;;;;5156270;27;20120;-64
2021/11/01 00:21:22;;;;;;;2.50;1.40;;;4.30;99.90;;;;;;5156360;27;20428;-64
2021/11/01 00:23:48;;;;;;;1.50;1.20;;;4.30;99.90;;;;;;5156211;27;20023;-64
2021/11/01 00:26:14;;;;;;;2.53;1.50;;;4.30;99.90;;;;;;5156603;27;20022;-64
2021/11/01 00:28:40;;;;;;;1.65;1.27;;;4.30;99.90;;;;;;5156401;27;20464;-64
2021/11/01 00:31:06;;;;;;;2.08;1.45;;;4.30;99.90;;;;;;5155806;27;20603;-64
2021/11/01 00:33:32;;;;;;;3.70;1.70;;;4.30;99.90;;;;;;5155538;27;20106;-64
2021/11/01 00:35:57;;;;;;;2.60;1.80;;;4.30;99.90;;;;;;5156223;27;20029;-64
2021/11/01 00:38:23;;;;;;;2.35;1.58;;;4.30;99.90;;;;;;5156168;27;20493;-64
2021/11/01 00:40:50;;;;;;;5.57;2.10;;;4.40;99.90;;;;;;5155933;27;20397;-65
2021/11/01 00:43:15;;;;;;;3.22;1.60;;;4.40;99.90;;;;;;5156260;27;20021;-65
2021/11/01 00:45:41;;;;;;;3.47;1.90;;;4.30;99.90;;;;;;5155699;27;20022;-65
2021/11/01 00:48:08;;;;;;;3.63;1.80;;;4.30;99.90;;;;;;5156145;27;20019;-65
2021/11/01 00:50:35;;;;;;;2.42;1.70;;;4.40;99.90;;;;;;5155687;27;20055;-66
2021/11/01 00:53:01;;;;;;;4.50;1.90;;;4.40;99.90;;;;;;5156032;27;20031;-65
2021/11/01 00:58:11;;;;;;;3.15;2.20;;;4.40;99.90;;;;;;5155534;27;20038;-65
2021/11/01 01:00:38;;;;;;;2.90;1.70;;;4.30;99.90;;;;;;5155356;27;20519;-66
2021/11/01 01:03:04;;;;;;;3.45;2.15;;;4.30;99.90;;;;;;5155511;27;20023;-64
2021/11/01 01:05:30;;;;;;;3.28;1.92;;;4.30;99.90;;;;;;5155681;27;20041;-65
2021/11/01 01:07:55;;;;;;;3.65;2.22;;;4.30;99.90;;;;;;5155593;27;20018;-64
2021/11/01 01:10:21;;;;;;;3.22;2.15;;;4.30;99.90;;;;;;5155561;27;20466;-64
2021/11/01 01:12:47;;;;;;;3.72;2.25;;;4.30;99.90;;;;;;5155220;27;20025;-64
2021/11/01 01:15:24;;;;;;;4.57;2.20;;;4.40;99.90;;;;;;5155236;27;20077;-64
2021/11/01 01:17:50;;;;;;;4.35;2.25;;;4.40;99.90;;;;;;5155439;27;20029;-64
2021/11/01 01:20:19;;;;;;;3.00;1.90;;;4.30;99.90;;;;;;5154894;27;20066;-64
2021/11/01 01:22:46;;;;;;;5.13;2.20;;;4.40;99.90;;;;;;5154943;27;20022;-64
2021/11/01 01:25:20;;;;;;;4.45;2.28;;;4.40;99.90;;;;;;5154966;27;20037;-64
2021/11/01 01:27:46;;;;;;;2.45;1.85;;;4.40;99.90;;;;;;5154058;27;20034;-64
2021/11/01 01:30:14;;;;;;;4.20;2.30;;;4.40;99.90;;;;;;5155277;27;20022;-64
2021/11/01 01:32:41;;;;;;;3.05;1.88;;;4.40;99.90;;;;;;5154840;27;20427;-64
2021/11/01 01:35:08;;;;;;;3.03;1.88;;;4.40;99.90;;;;;;5155031;27;20169;-64
2021/11/01 01:37:34;;;;;;;4.55;2.10;;;4.40;99.90;;;;;;5154989;27;20129;-64
2021/11/01 01:40:00;;;;;;;3.13;1.85;;;4.40;99.90;;;;;;5154675;27;20443;-64
2021/11/01 01:42:26;;;;;;;3.33;2.03;;;4.40;99.90;;;;;;5155102;27;20098;-64
2021/11/01 01:44:51;;;;;;;2.92;1.70;;;4.40;99.90;;;;;;5154366;27;20386;-64
2021/11/01 01:47:18;;;;;;;2.67;1.92;;;4.40;99.90;;;;;;5154954;27;20054;-64
2021/11/01 01:49:43;;;;;;;2.22;1.60;;;4.40;99.90;;;;;;5154663;27;20105;-65
2021/11/01 01:52:10;;;;;;;2.42;1.85;;;4.40;99.90;;;;;;5154666;27;20560;-65
2021/11/01 01:54:36;;;;;;;2.22;1.55;;;4.40;99.90;;;;;;5154382;27;20019;-65
2021/11/01 01:57:02;;;;;;;5.57;1.70;;;4.40;99.90;;;;;;5154491;27;20019;-65
2021/11/01 01:59:29;;;;;;;3.13;2.15;;;4.40;99.90;;;;;;5154120;27;20043;-65
2021/11/01 02:01:55;;;;;;;3.70;1.85;;;4.40;99.90;;;;;;5154309;27;20118;-65
2021/11/01 02:04:23;;;;;;;2.20;1.83;;;4.40;99.90;;;;;;5154546;27;20058;-65
2021/11/01 02:07:07;;;;;;;2.08;1.65;;;4.50;99.90;;;;;;5154447;27;20023;-65
2021/11/01 02:09:57;;;;;;;4.85;1.80;;;4.50;99.90;;;;;;5154204;27;20033;-65
2021/11/01 02:12:33;;;;;;;2.53;1.90;;;4.50;99.90;;;;;;5154608;27;20027;-65
2021/11/01 02:15:10;;;;;;;2.55;1.60;;;4.50;99.90;;;;;;5153917;27;20035;-65
2021/11/01 02:17:38;;;;;;;2.95;1.98;;;4.50;99.90;;;;;;5153982;27;20030;-64
2021/11/01 02:20:07;;;;;;;1.65;1.55;;;4.50;99.90;;;;;;5153861;27;20031;-64
2021/11/01 02:23:03;;;;;;;2.13;1.60;;;4.50;99.90;;;;;;5154393;27;20053;-65
2021/11/01 02:54:32;;;;;;;1.42;1.30;;;4.50;99.90;;;;;;5152845;27;20042;-64
2021/11/01 02:56:59;;;;;;;1.90;1.70;;;4.50;99.90;;;;;;5153350;27;20067;-65
2021/11/01 02:59:25;;;;;;;1.30;1.20;;;4.50;99.90;;;;;;5153243;27;20054;-65
2021/11/01 03:01:51;;;;;;;1.90;1.40;;;4.50;99.90;;;;;;5153461;27;20023;-65
2021/11/01 03:04:17;;;;;;;1.88;1.40;;;4.50;99.90;;;;;;5153980;27;20144;-65
2021/11/01 03:06:43;;;;;;;1.40;1.30;;;4.60;99.90;;;;;;5153476;27;20398;-65
2021/11/01 03:09:09;;;;;;;1.83;1.50;;;4.50;99.90;;;;;;5153414;27;20023;-64
2021/11/01 03:11:35;;;;;;;1.30;1.20;;;4.50;99.90;;;;;;5153442;27;20019;-65
2021/11/01 03:14:02;;;;;;;1.60;1.50;;;4.50;99.90;;;;;;5153356;27;20029;-66
2021/11/01 03:16:29;;;;;;;1.73;1.63;;;4.50;99.90;;;;;;5153322;27;20034;-66
2021/11/01 03:19:08;;;;;;;2.10;1.33;;;4.50;99.90;;;;;;5153402;27;20025;-65
2021/11/01 03:21:42;;;;;;;1.75;1.65;;;4.50;99.90;;;;;;5153186;27;20022;-65
2021/11/01 03:24:11;;;;;;;1.67;1.58;;;4.50;99.90;;;;;;5153541;27;20106;-66
2021/11/01 03:26:37;;;;;;;1.70;1.40;;;4.50;99.90;;;;;;5153206;27;20023;-66
2021/11/01 03:29:05;;;;;;;1.80;1.70;;;4.50;99.90;;;;;;5153405;27;20027;-66
2021/11/01 03:31:37;;;;;;;1.92;1.42;;;4.40;99.90;;;;;;5152618;27;20034;-66
2021/11/01 03:34:03;;;;;;;2.85;1.35;;;4.40;99.90;;;;;;5153182;27;20011;-66
2021/11/01 03:36:30;;;;;;;2.22;1.90;;;4.40;99.90;;;;;;5153107;27;20423;-66
2021/11/01 03:38:57;;;;;;;1.58;1.48;;;4.40;99.90;;;;;;5153279;27;20328;-66
2021/11/01 03:41:26;;;;;;;1.55;1.45;;;4.40;99.90;;;;;;5153385;27;20057;-67
2021/11/01 03:44:05;;;;;;;2.38;1.83;;;4.50;99.90;;;;;;5153160;27;20023;-67
2021/11/01 03:49:00;;;;;;;1.30;1.20;;;4.50;99.90;;;;;;5153033;27;20034;-67
2021/11/01 03:51:39;;;;;;;1.50;1.40;;;4.60;99.90;;;;;;5152996;27;20100;-67
2021/11/01 03:54:05;;;;;;;1.50;1.40;;;4.50;99.90;;;;;;5152893;27;20171;-67
2021/11/01 03:56:32;;;;;;;1.50;1.40;;;4.50;99.90;;;;;;5152949;27;20026;-67
2021/11/01 03:58:58;;;;;;;1.85;1.60;;;4.50;99.90;;;;;;5152764;27;20043;-67
2021/11/01 04:01:24;;;;;;;1.42;1.33;;;4.50;99.90;;;;;;5152869;27;20031;-67
2021/11/01 04:03:50;;;;;;;1.38;1.20;;;4.50;99.90;;;;;;5152942;27;20159;-67
2021/11/01 04:06:18;;;;;;;1.30;1.20;;;4.50;99.90;;;;;;5152959;27;20033;-67
2021/11/01 04:08:44;;;;;;;1.73;1.27;;;4.60;99.90;;;;;;5156227;27;20037;-67
2021/11/01 04:11:11;;;;;;;1.73;1.50;;;4.60;99.90;;;;;;5156277;27;20534;-67
2021/11/01 04:13:38;;;;;;;1.55;1.42;;;4.60;99.90;;;;;;5156639;27;20023;-67
2021/11/01 04:16:15;;;;;;;1.90;1.60;;;4.60;99.90;;;;;;5156169;27;20360;-67
2021/11/01 04:21:16;;;;;;;1.60;1.50;;;4.70;99.90;;;;;;5156512;27;20508;-66
2021/11/01 04:23:42;;;;;;;1.40;1.30;;;4.60;99.90;;;;;;5156429;27;20019;-66
2021/11/01 04:26:09;;;;;;;1.40;1.30;;;4.60;99.90;;;;;;5156438;27;20037;-66
2021/11/01 04:28:35;;;;;;;1.50;1.40;;;4.60;99.90;;;;;;5156696;27;20043;-66
2021/11/01 04:31:08;;;;;;;1.60;1.50;;;4.60;99.90;;;;;;5155944;27;20061;-66
2021/11/01 04:33:34;;;;;;;1.27;1.17;;;4.60;99.90;;;;;;5156245;27;20486;-66
2021/11/01 04:36:00;;;;;;;1.50;1.40;;;4.60;99.90;;;;;;5155873;27;20674;-66
2021/11/01 04:54:15;;;;;;;1.75;1.50;;;4.60;99.90;;;;;;5155711;27;20033;-66
2021/11/01 04:56:43;;;;;;;2.60;1.45;;;4.70;99.90;;;;;;5155718;27;20019;-66
2021/11/01 04:59:09;;;;;;;1.52;1.42;;;4.70;99.90;;;;;;5155344;27;20506;-66
2021/11/01 05:01:45;;;;;;;1.90;1.70;;;4.70;99.90;;;;;;5155481;27;20027;-66
2021/11/01 05:04:15;;;;;;;1.50;1.40;;;4.80;99.90;;;;;;5155522;27;20507;-66
2021/11/01 05:07:04;;;;;;;2.15;1.58;;;4.80;99.90;;;;;;5155713;27;20501;-65
2021/11/01 05:22:46;;;;;;;1.65;1.50;;;4.80;99.90;;;;;;5155525;27;20018;-65
2021/11/01 05:27:48;;;;;;;1.52;1.40;;;4.80;99.90;;;;;;5155400;27;20054;-66
2021/11/01 05:30:23;;;;;;;3.15;1.40;;;4.80;99.90;;;;;;5154773;27;20105;-66
2021/11/01 05:35:33;;;;;;;1.80;1.70;;;4.70;99.90;;;;;;5154766;27;20080;-64
2021/11/01 05:37:59;;;;;;;1.70;0.98;;;4.70;99.90;;;;;;5154790;27;20484;-68
2021/11/01 05:40:25;;;;;;;1.65;1.48;;;5.00;99.90;;;;;;5154640;27;20038;-64
2021/11/01 05:42:51;;;;;;;1.50;1.35;;;7.20;99.90;;;;;;5154489;27;20039;-64
2021/11/01 05:45:17;;;;;;;1.40;1.30;;;7.40;99.90;;;;;;5151303;27;20062;-64
2021/11/01 05:47:47;;;;;;;1.55;1.30;;;6.90;99.90;;;;;;5147859;27;20019;-64
2021/11/01 05:50:13;;;;;;;1.60;1.50;;;6.40;99.90;;;;;;5141543;27;20054;-64
2021/11/01 05:52:42;;;;;;;2.05;1.35;;;6.10;99.90;;;;;;5144147;27;20050;-64
2021/11/01 05:55:21;;;;;;;1.85;1.40;;;5.90;99.90;;;;;;5147531;27;20501;-65
2021/11/01 06:03:28;;;;;;;1.67;1.50;;;5.60;99.90;;;;;;5140145;27;20431;-64
2021/11/01 06:13:54;;;;;;;1.90;1.70;;;5.30;99.90;;;;;;5118662;27;20065;-63
2021/11/01 06:16:21;;;;;;;1.90;1.77;;;5.20;99.90;;;;;;5141592;27;20034;-64
2021/11/01 06:18:48;;;;;;;1.60;1.50;;;5.20;99.90;;;;;;5153419;27;20026;-64
2021/11/01 06:21:16;;;;;;;2.03;1.85;;;5.20;99.90;;;;;;5132898;27;20039;-64
2021/11/01 06:23:46;;;;;;;3.35;1.73;;;5.10;99.90;;;;;;5148571;27;20024;-64
2021/11/01 06:26:13;;;;;;;2.08;1.88;;;5.00;99.90;;;;;;5132997;27;20465;-65
2021/11/01 06:28:43;;;;;;;2.65;2.05;;;5.10;99.90;;;;;;5133186;27;20023;-65
2021/11/01 06:31:27;;;;;;;2.08;1.83;;;5.30;99.90;;;;;;5130259;27;20431;-65
2021/11/01 06:44:57;;;;;;;1.73;1.63;;;5.00;99.90;;;;;;5133429;27;20023;-64
2021/11/01 06:50:22;;;;;;;2.60;1.60;;;5.10;99.90;;;;;;5132801;27;20501;-65
2021/11/01 06:53:12;;;;;;;2.10;1.90;;;5.30;99.90;;;;;;5133008;28;20015;-66
2021/11/01 07:14:43;;;;;;;1.83;1.60;;;5.10;99.90;;;;;;5143487;27;20059;-68
2021/11/01 07:17:15;;;;;;;2.28;2.00;;;5.10;99.90;;;;;;5143012;27;20030;-67
2021/11/01 08:49:50;;;;;;;6.25;3.17;;;6.00;99.90;;;;;;5135099;27;20650;-64
2021/11/01 09:03:34;;;;;;;6.22;3.60;;;5.30;99.90;;;;;;5134755;27;20026;-65
2021/11/01 09:22:16;;;;;;;7.10;3.78;;;5.70;99.90;;;;;;5134370;27;20513;-64
2021/11/01 09:27:15;;;;;;;14.13;4.68;;;5.60;99.90;;;;;;5134356;27;20378;-64
2021/11/01 09:38:29;;;;;;;10.27;3.58;;;7.10;99.90;;;;;;5134163;27;20034;-65
2021/11/01 09:43:32;;;;;;;9.27;4.43;;;6.40;99.90;;;;;;5133941;27;20493;-65
2021/11/01 09:46:10;;;;;;;13.40;4.32;;;6.00;99.90;;;;;;5134106;27;20035;-62
2021/11/01 09:48:40;;;;;;;7.15;3.72;;;5.90;99.90;;;;;;5140573;27;20423;-65
2021/11/01 09:51:07;;;;;;;7.72;4.18;;;5.70;99.90;;;;;;5136435;27;20505;-65
2021/11/01 09:53:41;;;;;;;6.70;3.72;;;5.50;99.90;;;;;;5147458;27;20023;-65
2021/11/01 09:56:30;;;;;;;12.05;4.32;;;5.50;99.90;;;;;;5132616;27;20383;-65
2021/11/01 09:59:12;;;;;;;7.00;4.45;;;5.40;99.90;;;;;;5136692;27;20122;-65
2021/11/01 10:01:43;;;;;;;7.32;4.45;;;5.40;99.90;;;;;;5154180;27;20485;-66
2021/11/01 10:04:20;;;;;;;10.77;5.53;;;5.40;99.90;;;;;;5153247;27;20019;-66
2021/11/01 10:06:56;;;;;;;9.23;5.43;;;5.30;99.90;;;;;;5154306;27;20489;-64
2021/11/01 10:09:30;;;;;;;10.48;5.82;;;5.30;99.90;;;;;;5154460;27;20083;-66
2021/11/01 10:11:56;;;;;;;9.43;5.13;;;5.30;99.90;;;;;;5154364;27;20023;-65
2021/11/01 10:14:25;;;;;;;10.45;5.32;;;5.20;99.90;;;;;;5147847;27;20092;-65
2021/11/01 10:19:38;;;;;;;12.23;5.63;;;5.10;99.90;;;;;;5139182;27;20034;-66
2021/11/01 10:22:34;;;;;;;10.18;5.18;;;5.00;99.90;;;;;;5147263;27;20037;-65
2021/11/01 10:25:02;;;;;;;10.20;5.00;;;5.10;99.90;;;;;;5133749;27;20054;-65
2021/11/01 10:27:40;;;;;;;11.60;5.28;;;5.10;99.90;;;;;;5137826;27;20031;-64
2021/11/01 10:30:10;;;;;;;8.48;4.75;;;5.00;99.90;;;;;;5136499;27;20462;-65
2021/11/01 10:32:44;;;;;;;9.17;4.93;;;5.00;99.90;;;;;;5139086;27;20531;-65
2021/11/01 10:35:18;;;;;;;8.13;4.53;;;5.00;99.90;;;;;;5137848;27;20035;-65
2021/11/01 10:38:20;;;;;;;9.15;4.22;;;5.00;99.90;;;;;;5141267;27;20051;-65
2021/11/01 10:41:05;;;;;;;5.72;3.30;;;5.00;99.90;;;;;;5137418;27;20027;-65
2021/11/01 11:13:40;;;;;;;11.05;5.60;;;4.90;99.90;;;;;;5137756;27;20071;-64
2021/11/01 11:16:09;;;;;;;10.10;5.32;;;4.90;99.90;;;;;;5140698;27;20011;-64
2021/11/01 11:47:47;;;;;;;10.90;5.43;;;5.10;99.90;;;;;;5136474;27;20042;-64
2021/11/01 11:50:22;;;;;;;14.98;6.85;;;5.00;99.90;;;;;;5136040;27;20101;-64
2021/11/01 11:52:49;;;;;;;13.38;5.53;;;5.10;99.90;;;;;;5136423;27;20428;-64
2021/11/01 11:55:23;;;;;;;15.18;6.75;;;5.00;99.90;;;;;;5136228;27;20023;-64
2021/11/01 11:58:03;;;;;;;22.35;5.68;;;5.00;99.90;;;;;;5136074;27;20382;-64
2021/11/01 12:00:33;;;;;;;16.27;6.07;;;5.10;99.90;;;;;;5138149;27;20070;-65
2021/11/01 12:03:10;;;;;;;33.80;6.15;;;5.10;99.90;;;;;;5144340;27;20098;-64
2021/11/01 12:05:42;;;;;;;20.42;5.75;;;5.50;99.90;;;;;;5135738;27;20024;-65
2021/11/01 12:09:07;;;;;;;17.13;6.22;;;5.40;99.90;;;;;;5135899;27;20114;-64
2021/11/01 12:19:05;;;;;;;17.83;4.20;;;5.10;99.90;;;;;;5141594;27;20091;-64
2021/11/01 12:21:34;;;;;;;10.30;4.50;;;5.10;99.90;;;;;;5146771;27;20030;-65
2021/11/01 12:24:01;;;;;;;15.65;5.38;;;5.30;99.90;;;;;;5150383;27;20064;-65
2021/11/01 12:26:27;;;;;;;11.52;4.30;;;5.80;99.90;;;;;;5148849;27;20371;-65
2021/11/01 12:28:59;;;;;;;7.78;4.10;;;6.00;99.90;;;;;;5155172;27;20034;-64
2021/11/01 12:31:27;;;;;;;15.65;4.95;;;5.90;99.90;;;;;;5156143;27;20027;-65
2021/11/01 12:34:00;;;;;;;12.40;4.97;;;5.70;99.90;;;;;;5156379;27;20082;-65
2021/11/01 12:36:32;;;;;;;12.88;5.25;;;5.60;99.90;;;;;;5155992;27;20486;-65
2021/11/01 12:39:11;;;;;;;8.75;4.68;;;5.60;99.90;;;;;;5156134;27;20498;-65
2021/11/01 12:58:27;;;;;;;12.30;4.45;;;6.70;99.90;;;;;;5134924;27;20053;-66
2021/11/01 13:00:53;;;;;;;7.32;4.30;;;6.50;99.90;;;;;;5134968;27;20042;-65
2021/11/01 13:03:22;;;;;;;7.90;4.18;;;6.40;99.90;;;;;;5134590;27;20475;-65
2021/11/01 13:06:00;;;;;;;9.43;3.85;;;6.20;99.90;;;;;;5134529;27;20479;-65
2021/11/01 13:08:31;;;;;;;6.30;4.07;;;6.20;99.90;;;;;;5134451;27;20034;-64
2021/11/01 13:11:03;;;;;;;6.50;3.90;;;6.20;99.90;;;;;;5134587;27;20023;-64
2021/11/01 13:18:48;;;;;;;6.38;3.65;;;6.30;99.90;;;;;;5134550;27;20050;-64
2021/11/01 13:21:20;;;;;;;6.60;3.38;;;8.70;99.90;;;;;;5134640;27;20039;-65
2021/11/01 13:23:55;;;;;;;6.05;3.58;;;8.60;99.90;;;;;;5134249;27;20024;-65
2021/11/01 13:26:48;;;;;;;14.73;4.32;;;7.90;99.90;;;;;;5134695;27;20031;-64
2021/11/01 13:40:09;;;;;;;11.43;5.22;;;6.50;99.90;;;;;;5134029;27;20024;-64
2021/11/01 13:42:37;;;;;;;11.10;5.00;;;6.40;99.90;;;;;;5153598;27;20019;-63
2021/11/01 13:45:14;;;;;;;13.02;6.13;;;6.30;99.90;;;;;;5154632;27;20473;-64
2021/11/01 13:47:49;;;;;;;12.40;5.40;;;6.30;99.90;;;;;;5154895;27;20037;-64
2021/11/01 13:50:20;;;;;;;12.85;5.85;;;6.30;99.90;;;;;;5152419;27;20513;-64
2021/11/01 13:53:04;;;;;;;13.80;5.93;;;6.30;99.90;;;;;;5133981;27;20034;-64
2021/11/01 13:58:12;;;;;;;17.65;6.40;;;6.20;99.90;;;;;;5122495;27;20027;-64
2021/11/01 14:11:50;;;;;;;12.70;6.70;;;6.20;99.90;;;;;;5121383;27;20038;-65
2021/11/01 14:16:58;;;;;;;17.27;7.25;;;6.20;99.90;;;;;;5123459;27;20050;-64
2021/11/01 14:19:50;;;;;;;17.33;8.45;;;6.20;99.90;;;;;;5122125;27;20016;-65
2021/11/01 15:21:39;;;;;;;24.60;9.02;;;6.60;99.90;;;;;;5113033;28;20504;-65
2021/11/01 15:32:27;;;;;;;21.25;8.60;;;6.70;99.90;;;;;;5120887;28;20016;-66
2021/11/01 16:18:33;;;;;;;21.50;7.90;;;7.20;99.90;;;;;;5115114;28;20063;-65
2021/11/01 16:20:59;;;;;;;12.65;6.72;;;7.20;99.90;;;;;;5115098;28;20027;-65
2021/11/01 16:23:36;;;;;;;14.35;7.68;;;7.20;99.90;;;;;;5115097;28;20076;-65
2021/11/01 16:26:13;;;;;;;18.95;7.40;;;7.20;99.90;;;;;;5115252;28;20028;-65
2021/11/01 16:28:39;;;;;;;17.17;7.63;;;7.20;99.90;;;;;;5115067;28;20023;-64
2021/11/01 16:33:42;;;;;;;16.30;7.03;;;7.20;99.90;;;;;;5114879;28;20028;-64
2021/11/01 16:36:16;;;;;;;16.17;7.57;;;7.20;99.90;;;;;;5129956;27;20499;-64
2021/11/01 16:38:51;;;;;;;18.10;8.48;;;7.30;99.90;;;;;;5134799;27;20035;-66
2021/11/01 16:41:19;;;;;;;22.80;8.82;;;7.20;99.90;;;;;;5135345;27;20405;-65
2021/11/01 16:43:48;;;;;;;20.60;8.00;;;7.30;99.90;;;;;;5133882;27;20364;-65
2021/11/01 16:46:14;;;;;;;21.35;9.80;;;7.30;99.90;;;;;;5135492;27;20015;-66
2021/11/01 16:48:44;;;;;;;14.10;9.15;;;7.30;99.90;;;;;;5135294;27;20020;-65
2021/11/01 16:51:11;;;;;;;22.30;9.00;;;7.40;99.90;;;;;;5135366;27;20019;-65
2021/11/01 16:53:41;;;;;;;18.27;9.10;;;7.40;99.90;;;;;;5135116;27;20099;-65
2021/11/01 16:58:59;;;;;;;19.00;10.07;;;7.30;99.90;;;;;;5102260;27;20051;-65
2021/11/01 17:01:26;;;;;;;23.20;10.23;;;7.30;99.90;;;;;;5132282;27;20031;-65
2021/11/01 17:04:01;;;;;;;23.90;10.85;;;7.30;99.90;;;;;;5134341;27;20030;-65
2021/11/01 17:25:32;;;;;;;16.92;8.82;;;7.70;99.90;;;;;;5134127;27;20368;-65
2021/11/01 18:53:03;;;;;;;14.05;8.10;;;7.60;99.90;;;;;;5153832;27;20053;-66
2021/11/01 18:55:31;;;;;;;13.63;8.02;;;7.60;99.90;;;;;;5153687;27;20494;-66
2021/11/01 18:57:58;;;;;;;13.68;8.10;;;7.60;99.90;;;;;;5153239;27;20681;-66
2021/11/01 19:00:25;;;;;;;11.40;7.95;;;7.60;99.90;;;;;;5153652;27;20046;-66
2021/11/01 19:02:53;;;;;;;16.55;8.52;;;7.60;99.90;;;;;;5153478;27;20023;-66
2021/11/01 19:05:24;;;;;;;13.70;8.02;;;7.60;99.90;;;;;;5153589;27;20057;-66
2021/11/01 20:05:27;;;;;;;17.27;9.25;;;8.00;99.90;;;;;;5113126;28;20028;-65
2021/11/01 21:26:20;;;;;;;25.10;12.10;;;8.50;99.90;;;;;;5155488;27;20374;-65
2021/11/01 21:28:46;;;;;;;21.55;12.25;;;8.50;99.90;;;;;;5155245;27;20093;-65
2021/11/01 21:31:12;;;;;;;24.70;13.00;;;8.50;99.90;;;;;;5155102;27;20019;-65
2021/11/01 21:33:38;;;;;;;26.77;12.82;;;8.50;99.90;;;;;;5155077;27;20051;-65
2021/11/01 21:36:06;;;;;;;25.70;12.95;;;8.50;99.90;;;;;;5154793;27;20062;-65
2021/11/01 21:38:32;;;;;;;24.42;12.85;;;8.50;99.90;;;;;;5148491;27;20463;-64
2021/11/01 21:40:58;;;;;;;25.63;12.55;;;8.50;99.90;;;;;;5154739;27;20486;-66
2021/11/01 21:43:23;;;;;;;24.73;12.45;;;8.60;99.90;;;;;;5155130;27;20467;-66
2021/11/01 21:45:50;;;;;;;20.65;11.65;;;8.70;99.90;;;;;;5154752;27;20034;-66
2021/11/01 21:48:16;;;;;;;22.50;12.73;;;8.60;99.90;;;;;;5138820;27;20092;-66
2021/11/01 21:50:47;;;;;;;24.17;12.88;;;8.60;99.90;;;;;;5134133;27;20478;-66
2021/11/01 21:53:14;;;;;;;22.38;12.57;;;8.60;99.90;;;;;;5133754;27;20031;-66
2021/11/01 21:55:41;;;;;;;22.08;12.40;;;8.60;99.90;;;;;;5139714;27;20110;-66
2021/11/01 22:19:58;;;;;;;24.92;13.35;;;8.70;99.90;;;;;;5154008;27;20436;-66
2021/11/01 22:38:42;;;;;;;24.88;14.02;;;8.70;99.90;;;;;;5154268;27;20026;-65
2021/11/01 22:44:58;;;;;;;23.63;14.27;;;8.80;99.90;;;;;;5109927;28;20534;-66
2021/11/01 22:55:43;;;;;;;22.05;12.80;;;8.80;99.90;;;;;;5110106;28;20030;-66
2021/11/01 22:58:12;;;;;;;26.02;14.57;;;8.80;99.90;;;;;;5139988;27;20037;-65
2021/11/01 23:00:44;;;;;;;23.63;13.90;;;8.90;99.90;;;;;;5154074;27;20117;-65
2021/11/01 23:03:16;;;;;;;20.73;14.05;;;8.90;99.90;;;;;;5154123;27;20090;-66
2021/11/01 23:06:01;;;;;;;19.52;13.43;;;8.90;99.90;;;;;;5153684;27;20029;-65
2021/11/01 23:33:08;;;;;;;21.35;13.50;;;8.90;99.90;;;;;;5157658;27;20038;-69
2021/11/01 23:35:33;;;;;;;23.17;14.68;;;9.00;99.90;;;;;;5157382;27;20474;-69
2021/11/01 23:38:01;;;;;;;22.05;13.13;;;9.00;99.90;;;;;;5157230;27;20018;-70
2021/11/01 23:40:27;;;;;;;21.02;13.77;;;9.00;99.90;;;;;;5157518;27;20039;-69
2021/11/01 23:42:53;;;;;;;19.83;12.93;;;9.00;99.90;;;;;;5157299;27;20399;-69
2021/11/01 23:45:18;;;;;;;21.30;14.02;;;9.00;99.90;;;;;;5157127;27;20023;-69
2021/11/01 23:47:44;;;;;;;21.73;13.85;;;9.00;99.90;;;;;;5157337;27;20035;-69
2021/11/01 23:50:10;;;;;;;21.63;13.80;;;9.00;99.90;;;;;;5156975;27;20011;-69
2021/11/01 23:52:41;;;;;;;20.15;13.15;;;9.00;99.90;;;;;;5157177;27;20027;-69
2021/11/01 23:55:10;;;;;;;21.80;12.90;;;9.00;99.90;;;;;;5156862;27;20026;-69
2021/11/01 23:57:36;;;;;;;22.55;14.18;;;9.00;99.90;;;;;;5155824;27;20061;-69
